createdAt,value
2023-02-02T00:00:12.835Z,92.68
2023-02-02T00:02:39.346Z,92.87
2023-02-02T00:05:05.919Z,93.14
2023-02-02T00:07:32.352Z,92.57
2023-02-02T00:09:58.865Z,92.75
2023-02-02T00:12:25.353Z,93.25
2023-02-02T00:14:51.759Z,93.55
2023-02-02T00:17:18.191Z,93.44
2023-02-02T00:19:46.794Z,93.49
2023-02-02T00:22:13.299Z,93.85
2023-02-02T00:24:39.844Z,94.83
2023-02-02T00:27:06.273Z,94.99
2023-02-02T00:29:32.824Z,95.43
2023-02-02T00:31:59.353Z,96.06
2023-02-02T00:34:26.004Z,96.19
2023-02-02T00:36:52.515Z,96.52
2023-02-02T00:39:23.160Z,96.27
2023-02-02T00:41:49.590Z,96.19
2023-02-02T00:44:34.675Z,96.39
2023-02-02T00:47:01.179Z,96.61
2023-02-02T00:49:27.618Z,96.08
2023-02-02T00:51:54.155Z,96.14
2023-02-02T00:54:20.606Z,96.06
2023-02-02T00:56:47.062Z,96.41
2023-02-02T00:59:13.501Z,96.42
2023-02-02T01:01:39.992Z,97.53
2023-02-02T01:04:06.921Z,98.76
2023-02-02T01:06:33.421Z,98.08
2023-02-02T01:08:59.890Z,97.69
2023-02-02T01:11:26.344Z,98.35
2023-02-02T01:13:52.844Z,98.04
2023-02-02T01:16:19.339Z,97.92
2023-02-02T01:18:45.799Z,97.68
2023-02-02T01:21:12.663Z,97.80
2023-02-02T01:23:39.331Z,97.64
2023-02-02T01:26:07.960Z,97.97
2023-02-02T01:28:35.000Z,97.66
2023-02-02T01:31:06.424Z,97.44
2023-02-02T01:33:32.900Z,97.35
2023-02-02T01:36:02.773Z,97.85
2023-02-02T01:38:29.214Z,98.00
2023-02-02T01:40:56.356Z,97.30
2023-02-02T01:43:25.633Z,97.68
2023-02-02T01:45:52.690Z,98.80
2023-02-02T01:48:21.686Z,98.97
2023-02-02T01:50:49.962Z,99.39
2023-02-02T01:53:19.805Z,99.42
2023-02-02T01:55:48.136Z,99.12
2023-02-02T01:58:17.945Z,99.57
2023-02-02T02:00:46.943Z,100.00
2023-02-02T02:03:18.856Z,99.47
2023-02-02T02:05:48.509Z,100.00
2023-02-02T02:08:22.412Z,99.78
2023-02-02T02:10:49.129Z,99.36
2023-02-02T02:13:16.198Z,99.31
2023-02-02T02:16:16.622Z,99.07
2023-02-02T02:18:51.907Z,98.90
2023-02-02T02:21:56.910Z,99.33
2023-02-02T02:25:00.825Z,99.44
2023-02-02T02:27:36.478Z,99.39
2023-02-02T02:30:07.335Z,99.60
2023-02-02T02:32:40.243Z,99.24
2023-02-02T02:35:12.841Z,99.33
2023-02-02T02:37:49.659Z,99.58
2023-02-02T02:40:16.383Z,99.98
2023-02-02T02:42:46.027Z,100.00
2023-02-02T02:45:13.208Z,100.00
2023-02-02T02:47:41.252Z,100.00
2023-02-02T02:50:07.965Z,100.00
2023-02-02T02:52:35.165Z,100.00
2023-02-02T02:55:02.252Z,100.00
2023-02-02T02:57:34.907Z,100.00
2023-02-02T03:00:21.589Z,100.00
2023-02-02T03:02:52.885Z,100.00
2023-02-02T03:05:19.347Z,100.00
2023-02-02T03:07:50.137Z,100.00
2023-02-02T03:10:19.539Z,100.00
2023-02-02T03:12:50.507Z,100.00
2023-02-02T03:15:17.489Z,100.00
2023-02-02T03:17:44.833Z,100.00
2023-02-02T03:20:11.734Z,100.00
2023-02-02T03:22:38.197Z,100.00
2023-02-02T03:25:05.107Z,100.00
2023-02-02T03:27:32.197Z,100.00
2023-02-02T03:29:58.887Z,100.00
2023-02-02T03:32:25.510Z,100.00
2023-02-02T03:34:51.949Z,100.00
2023-02-02T03:37:18.428Z,100.00
2023-02-02T03:39:44.859Z,100.00
2023-02-02T03:42:11.286Z,100.00
2023-02-02T03:44:37.745Z,100.00
2023-02-02T03:47:04.173Z,100.00
2023-02-02T03:49:30.601Z,100.00
2023-02-02T03:51:57.073Z,100.00
2023-02-02T03:54:23.552Z,100.00
2023-02-02T03:56:50.020Z,100.00
2023-02-02T03:59:16.476Z,100.00
2023-02-02T04:01:42.937Z,100.00
2023-02-02T04:04:09.367Z,100.00
2023-02-02T04:06:35.934Z,100.00
2023-02-02T04:09:02.356Z,100.00
2023-02-02T04:11:28.833Z,100.00
2023-02-02T04:13:55.299Z,100.00
2023-02-02T04:16:21.780Z,100.00
2023-02-02T04:18:48.248Z,100.00
2023-02-02T04:21:14.734Z,99.59
2023-02-02T04:23:41.207Z,98.93
2023-02-02T04:26:07.672Z,99.23
2023-02-02T04:28:34.107Z,99.37
2023-02-02T04:31:00.590Z,99.16
2023-02-02T04:33:28.060Z,98.81
2023-02-02T04:35:54.593Z,99.25
2023-02-02T04:38:21.075Z,99.19
2023-02-02T04:40:48.020Z,99.20
2023-02-02T04:43:14.495Z,99.61
2023-02-02T04:45:42.335Z,99.29
2023-02-02T04:48:09.239Z,99.23
2023-02-02T04:50:35.687Z,98.05
2023-02-02T04:53:02.925Z,98.28
2023-02-02T04:55:29.349Z,97.85
2023-02-02T04:57:55.796Z,97.51
2023-02-02T05:00:22.461Z,97.45
2023-02-02T05:02:48.991Z,97.22
2023-02-02T05:05:15.556Z,97.18
2023-02-02T05:07:42.239Z,97.51
2023-02-02T05:10:09.706Z,96.84
2023-02-02T05:12:36.128Z,96.72
2023-02-02T05:15:03.615Z,96.27
2023-02-02T05:17:30.133Z,95.58
2023-02-02T05:19:56.771Z,95.31
2023-02-02T05:22:23.226Z,94.99
2023-02-02T05:24:49.737Z,95.43
2023-02-02T05:27:16.158Z,95.41
2023-02-02T05:29:42.661Z,95.53
2023-02-02T05:32:09.211Z,95.54
2023-02-02T05:34:35.696Z,94.07
2023-02-02T05:37:02.124Z,94.34
2023-02-02T05:39:28.578Z,93.67
2023-02-02T05:41:54.994Z,93.57
2023-02-02T05:44:21.440Z,93.53
2023-02-02T05:46:47.862Z,93.98
2023-02-02T05:49:14.563Z,93.51
2023-02-02T05:51:43.828Z,93.65
2023-02-02T05:54:10.281Z,93.59
2023-02-02T05:56:36.740Z,93.25
2023-02-02T05:59:07.399Z,93.39
2023-02-02T06:01:34.365Z,92.95
2023-02-02T06:04:00.910Z,92.86
2023-02-02T06:06:27.691Z,92.97
2023-02-02T06:08:54.181Z,92.74
2023-02-02T06:11:20.619Z,93.25
2023-02-02T06:13:47.120Z,93.31
2023-02-02T06:16:13.615Z,93.81
2023-02-02T06:18:40.516Z,93.87
2023-02-02T06:21:07.085Z,93.69
2023-02-02T06:23:34.018Z,94.31
2023-02-02T06:26:00.710Z,94.33
2023-02-02T06:28:27.192Z,94.98
2023-02-02T06:30:53.689Z,95.00
2023-02-02T06:33:20.154Z,95.15
2023-02-02T06:35:46.610Z,95.36
2023-02-02T06:38:13.129Z,95.69
2023-02-02T06:40:39.546Z,96.03
2023-02-02T06:43:06.135Z,95.89
2023-02-02T06:45:32.610Z,95.84
2023-02-02T06:48:03.487Z,95.95
2023-02-02T06:50:30.122Z,96.38
2023-02-02T06:52:56.565Z,96.34
2023-02-02T06:55:23.319Z,97.00
2023-02-02T06:57:55.837Z,96.55
2023-02-02T07:00:22.330Z,96.64
2023-02-02T07:02:48.997Z,96.44
2023-02-02T07:05:15.470Z,96.89
2023-02-02T07:07:41.918Z,97.29
2023-02-02T07:10:08.715Z,96.92
2023-02-02T07:12:55.106Z,96.50
2023-02-02T07:15:22.450Z,96.64
2023-02-02T07:17:49.119Z,96.61
2023-02-02T07:20:15.761Z,96.03
2023-02-02T07:22:42.185Z,96.12
2023-02-02T07:25:08.705Z,95.74
2023-02-02T07:27:35.246Z,96.27
2023-02-02T07:30:02.289Z,95.79
2023-02-02T07:32:28.746Z,95.93
2023-02-02T07:34:55.177Z,96.00
2023-02-02T07:37:21.780Z,95.44
2023-02-02T07:39:48.261Z,95.38
2023-02-02T07:42:14.700Z,95.20
2023-02-02T07:44:41.154Z,95.40
2023-02-02T07:47:07.603Z,95.90
2023-02-02T07:49:34.072Z,95.31
2023-02-02T07:52:00.529Z,93.97
2023-02-02T07:54:26.966Z,93.87
2023-02-02T07:56:53.494Z,93.78
2023-02-02T07:59:19.926Z,93.85
2023-02-02T08:01:46.562Z,94.14
2023-02-02T08:04:13.094Z,93.23
2023-02-02T08:06:40.023Z,93.81
2023-02-02T08:09:10.138Z,93.23
2023-02-02T08:11:37.242Z,93.57
2023-02-02T08:14:04.521Z,93.36
2023-02-02T08:16:31.805Z,93.13
2023-02-02T08:18:58.863Z,92.76
2023-02-02T08:21:25.589Z,92.85
2023-02-02T08:23:53.009Z,92.46
2023-02-02T08:26:22.161Z,92.71
2023-02-02T08:28:49.766Z,91.94
2023-02-02T08:31:18.064Z,91.93
2023-02-02T08:33:44.927Z,91.91
2023-02-02T08:36:15.382Z,91.30
2023-02-02T08:38:41.884Z,91.17
2023-02-02T08:41:09.381Z,90.51
2023-02-02T08:43:35.924Z,90.00
2023-02-02T08:46:05.532Z,90.34
2023-02-02T08:48:32.261Z,90.40
2023-02-02T08:50:59.165Z,90.28
2023-02-02T08:53:26.006Z,89.94
2023-02-02T08:55:59.967Z,89.38
2023-02-02T08:58:26.741Z,89.56
2023-02-02T09:00:53.416Z,89.76
2023-02-02T09:03:19.855Z,90.05
2023-02-02T09:05:46.485Z,89.91
2023-02-02T09:08:12.949Z,89.22
2023-02-02T09:10:39.456Z,89.26
2023-02-02T09:13:05.893Z,89.20
2023-02-02T09:15:32.925Z,89.50
2023-02-02T09:17:59.364Z,89.05
2023-02-02T09:20:25.806Z,89.15
2023-02-02T09:22:54.858Z,88.96
2023-02-02T09:25:21.485Z,89.13
2023-02-02T09:27:47.922Z,89.05
2023-02-02T09:30:14.570Z,89.68
2023-02-02T09:32:41.024Z,89.07
2023-02-02T09:35:07.675Z,89.86
2023-02-02T09:37:35.014Z,89.91
2023-02-02T09:40:01.564Z,89.47
2023-02-02T09:42:30.887Z,89.85
2023-02-02T09:45:08.196Z,89.84
2023-02-02T09:47:34.616Z,89.38
2023-02-02T09:50:01.042Z,89.18
2023-02-02T09:52:47.892Z,89.27
2023-02-02T09:55:26.703Z,89.66
2023-02-02T09:57:56.436Z,89.71
2023-02-02T10:00:33.994Z,89.60
2023-02-02T10:03:26.659Z,89.17
2023-02-02T10:06:01.413Z,89.61
2023-02-02T10:08:34.952Z,89.60
2023-02-02T10:11:14.091Z,89.23
2023-02-02T10:13:43.665Z,89.36
2023-02-02T10:16:17.369Z,89.64
2023-02-02T10:18:55.842Z,89.39
2023-02-02T10:21:41.241Z,88.84
2023-02-02T10:24:18.724Z,88.81
2023-02-02T10:26:56.223Z,89.63
2023-02-02T10:29:22.707Z,89.50
2023-02-02T10:31:58.614Z,89.40
2023-02-02T10:34:40.203Z,89.95
2023-02-02T10:37:06.717Z,89.93
2023-02-02T10:39:56.238Z,90.41
2023-02-02T10:42:40.500Z,90.71
2023-02-02T10:45:15.927Z,90.88
2023-02-02T10:47:42.492Z,90.63
2023-02-02T10:50:19.541Z,90.62
2023-02-02T10:52:56.377Z,91.15
2023-02-02T10:55:33.085Z,91.56
2023-02-02T10:58:02.507Z,91.13
2023-02-02T11:00:43.613Z,91.32
2023-02-02T11:03:11.403Z,91.72
2023-02-02T11:05:56.566Z,91.27
2023-02-02T11:08:22.960Z,91.65
2023-02-02T11:10:52.052Z,92.37
2023-02-02T11:13:38.707Z,93.26
2023-02-02T11:16:14.442Z,93.13
2023-02-02T11:18:43.938Z,93.85
2023-02-02T11:21:27.361Z,93.12
2023-02-02T11:23:53.783Z,93.65
2023-02-02T11:26:20.398Z,93.63
2023-02-02T11:28:49.137Z,93.03
2023-02-02T11:31:51.202Z,93.29
2023-02-02T11:34:20.685Z,93.15
2023-02-02T11:37:13.435Z,93.22
2023-02-02T11:39:43.911Z,93.78
2023-02-02T11:42:16.203Z,94.28
2023-02-02T11:44:50.124Z,94.24
2023-02-02T11:47:21.751Z,94.55
2023-02-02T11:49:49.724Z,94.52
2023-02-02T11:52:18.557Z,95.33
2023-02-02T11:54:50.085Z,95.52
2023-02-02T11:57:18.943Z,96.31
2023-02-02T11:59:45.658Z,96.78
2023-02-02T12:02:32.079Z,96.63
2023-02-02T12:05:10.466Z,96.55
2023-02-02T12:07:37.587Z,96.83
2023-02-02T12:10:13.582Z,97.11
2023-02-02T12:12:40.131Z,96.85
2023-02-02T12:15:25.218Z,96.43
2023-02-02T12:17:55.965Z,97.54
2023-02-02T12:20:34.853Z,97.24
2023-02-02T12:23:19.999Z,96.91
2023-02-02T12:26:05.340Z,97.80
2023-02-02T12:28:39.536Z,97.72
2023-02-02T12:31:29.039Z,97.52
2023-02-02T12:34:09.992Z,97.35
2023-02-02T12:36:43.817Z,97.70
2023-02-02T12:39:25.572Z,98.73
2023-02-02T12:42:10.775Z,99.06
2023-02-02T12:44:37.195Z,98.53
2023-02-02T12:47:12.133Z,98.82
2023-02-02T12:49:57.602Z,100.00
2023-02-02T12:52:33.195Z,99.78
2023-02-02T12:55:03.415Z,99.59
2023-02-02T12:57:50.402Z,99.23
2023-02-02T13:00:26.414Z,99.00
2023-02-02T13:03:13.257Z,98.86
2023-02-02T13:08:37.937Z,98.95
2023-02-02T13:11:08.332Z,98.82
2023-02-02T13:13:37.923Z,99.40
2023-02-02T13:16:11.633Z,99.03
2023-02-02T13:18:42.569Z,99.72
2023-02-02T13:21:12.470Z,99.23
2023-02-02T13:23:52.834Z,99.47
2023-02-02T13:26:21.237Z,100.00
2023-02-02T13:28:47.800Z,100.00
2023-02-02T13:31:18.623Z,100.00
2023-02-02T13:33:48.435Z,100.00
2023-02-02T13:36:19.441Z,100.00
2023-02-02T13:38:46.046Z,100.00
2023-02-02T13:41:13.587Z,100.00
2023-02-02T13:43:46.151Z,100.00
2023-02-02T13:46:12.668Z,100.00
2023-02-02T13:48:48.087Z,99.81
2023-02-02T13:51:20.268Z,99.51
2023-02-02T13:54:05.643Z,98.22
2023-02-02T13:56:51.033Z,97.65
2023-02-02T13:59:40.228Z,97.25
2023-02-02T14:02:20.710Z,98.39
2023-02-02T14:04:53.126Z,98.00
2023-02-02T14:07:26.191Z,98.04
2023-02-02T14:09:52.704Z,97.52
2023-02-02T14:12:27.668Z,97.70
2023-02-02T14:14:54.376Z,96.84
2023-02-02T14:17:23.597Z,95.64
2023-02-02T14:19:51.674Z,96.42
2023-02-02T14:22:19.810Z,96.45
2023-02-02T14:24:54.071Z,96.08
2023-02-02T14:27:43.591Z,96.10
2023-02-02T14:30:21.355Z,96.23
2023-02-02T14:32:47.863Z,96.20
2023-02-02T14:35:14.986Z,95.97
2023-02-02T14:37:41.422Z,96.45
2023-02-02T14:40:10.541Z,96.70
2023-02-02T14:43:08.053Z,96.27
2023-02-02T14:45:39.398Z,95.54
2023-02-02T14:48:05.963Z,95.21
2023-02-02T14:50:38.577Z,95.55
2023-02-02T14:53:05.000Z,95.28
2023-02-02T14:55:31.522Z,95.59
2023-02-02T14:58:04.837Z,95.66
2023-02-02T15:00:32.902Z,94.45
2023-02-02T15:03:18.439Z,94.40
2023-02-02T15:05:46.194Z,93.55
2023-02-02T15:08:24.202Z,93.52
2023-02-02T15:10:53.691Z,92.65
2023-02-02T15:13:29.309Z,92.64
2023-02-02T15:16:04.846Z,92.52
2023-02-02T15:18:38.497Z,90.44
2023-02-02T15:21:06.673Z,89.99
2023-02-02T15:23:33.126Z,89.99
2023-02-02T15:26:01.207Z,89.11
2023-02-02T15:28:43.466Z,89.83
2023-02-02T15:31:25.331Z,89.31
2023-02-02T15:33:54.679Z,89.17
2023-02-02T15:36:26.686Z,88.86
2023-02-02T15:38:56.459Z,88.10
2023-02-02T15:41:33.535Z,88.57
2023-02-02T15:44:00.568Z,87.65
2023-02-02T15:46:35.741Z,88.45
2023-02-02T15:49:33.647Z,86.65
2023-02-02T15:52:03.287Z,86.52
2023-02-02T15:54:35.236Z,87.42
2023-02-02T15:57:09.047Z,85.15
2023-02-02T15:59:40.096Z,85.99
2023-02-02T16:02:06.552Z,86.44
2023-02-02T16:04:37.425Z,86.42
2023-02-02T16:07:05.555Z,87.01
2023-02-02T16:09:35.797Z,86.74
2023-02-02T16:12:04.203Z,87.15
2023-02-02T16:14:32.327Z,87.78
2023-02-02T16:17:10.177Z,87.62
2023-02-02T16:19:36.954Z,88.53
2023-02-02T16:22:06.074Z,88.81
2023-02-02T16:24:37.187Z,88.55
2023-02-02T16:27:05.935Z,87.01
2023-02-02T16:29:32.946Z,87.94
2023-02-02T16:31:59.661Z,88.39
2023-02-02T16:34:41.551Z,86.04
2023-02-02T16:37:13.210Z,87.49
2023-02-02T16:39:39.686Z,87.18
2023-02-02T16:42:23.143Z,87.29
2023-02-02T16:44:49.889Z,87.47
2023-02-02T16:47:25.266Z,88.74
2023-02-02T16:50:07.668Z,88.70
2023-02-02T16:53:12.781Z,87.78
2023-02-02T16:55:50.664Z,88.01
2023-02-02T16:58:19.908Z,87.23
2023-02-02T17:01:13.520Z,88.19
2023-02-02T17:03:45.879Z,87.40
2023-02-02T17:06:12.392Z,88.06
2023-02-02T17:08:39.574Z,88.52
2023-02-02T17:11:18.285Z,88.36
2023-02-02T17:13:44.736Z,87.69
2023-02-02T17:16:13.811Z,87.74
2023-02-02T17:18:40.455Z,87.91
2023-02-02T17:21:07.762Z,88.33
2023-02-02T17:23:39.567Z,87.75
2023-02-02T17:26:07.552Z,88.59
2023-02-02T17:28:34.200Z,88.44
2023-02-02T17:31:02.172Z,87.60
2023-02-02T17:33:29.187Z,85.79
2023-02-02T17:35:56.609Z,85.69
2023-02-02T17:38:24.044Z,85.93
2023-02-02T17:40:51.083Z,84.33
2023-02-02T17:43:17.525Z,84.32
2023-02-02T17:45:44.079Z,83.85
2023-02-02T17:48:12.182Z,83.13
2023-02-02T17:50:38.925Z,84.12
2023-02-02T17:53:05.578Z,83.73
2023-02-02T17:55:33.370Z,82.69
2023-02-02T17:58:00.068Z,83.43
2023-02-02T18:00:28.648Z,82.78
2023-02-02T18:03:01.380Z,82.36
2023-02-02T18:05:28.114Z,81.49
2023-02-02T18:07:55.033Z,82.20
2023-02-02T18:10:26.296Z,83.68
2023-02-02T18:12:52.987Z,84.46
2023-02-02T18:15:19.435Z,83.83
2023-02-02T18:17:45.848Z,84.11
2023-02-02T18:20:14.098Z,83.59
2023-02-02T18:22:40.881Z,82.77
2023-02-02T18:25:07.588Z,82.28
2023-02-02T18:27:34.015Z,82.63
2023-02-02T18:30:00.585Z,82.61
2023-02-02T18:32:27.038Z,81.37
2023-02-02T18:34:55.881Z,80.87
2023-02-02T18:37:23.148Z,81.10
2023-02-02T18:39:49.632Z,79.72
2023-02-02T18:42:16.117Z,81.04
2023-02-02T18:44:42.767Z,81.20
2023-02-02T18:47:09.254Z,80.56
2023-02-02T18:49:35.704Z,80.27
2023-02-02T18:52:02.803Z,79.35
2023-02-02T18:54:29.522Z,78.03
2023-02-02T18:56:56.009Z,78.09
2023-02-02T18:59:22.566Z,79.22
2023-02-02T19:01:49.033Z,78.42
2023-02-02T19:04:15.560Z,78.82
2023-02-02T19:07:00.995Z,78.23
2023-02-02T19:09:27.433Z,77.37
2023-02-02T19:11:54.908Z,77.02
2023-02-02T19:14:24.655Z,76.01
2023-02-02T19:16:52.617Z,75.53
2023-02-02T19:19:19.040Z,74.70
2023-02-02T19:21:46.172Z,74.95
2023-02-02T19:24:13.130Z,73.18
2023-02-02T19:26:45.959Z,75.06
2023-02-02T19:29:18.433Z,75.50
2023-02-02T19:31:45.031Z,74.47
2023-02-02T19:34:13.123Z,74.82
2023-02-02T19:36:45.498Z,74.54
2023-02-02T19:39:14.807Z,74.80
2023-02-02T19:41:42.933Z,75.72
2023-02-02T19:44:13.891Z,75.26
2023-02-02T19:46:42.674Z,76.47
2023-02-02T19:49:18.012Z,76.97
2023-02-02T19:51:45.855Z,77.29
2023-02-02T19:54:22.051Z,76.95
2023-02-02T19:56:49.780Z,76.95
2023-02-02T19:59:18.371Z,76.75
2023-02-02T20:01:47.781Z,76.84
2023-02-02T20:04:19.389Z,76.67
2023-02-02T20:06:58.714Z,77.30
2023-02-02T20:09:29.848Z,77.72
2023-02-02T20:11:56.725Z,77.10
2023-02-02T20:14:28.532Z,77.18
2023-02-02T20:17:04.966Z,75.98
2023-02-02T20:19:37.201Z,76.08
2023-02-02T20:22:03.866Z,76.41
2023-02-02T20:24:37.578Z,76.54
2023-02-02T20:27:16.707Z,75.57
2023-02-02T20:29:45.183Z,77.08
2023-02-02T20:32:18.214Z,77.70
2023-02-02T20:34:45.103Z,78.94
2023-02-02T20:37:17.645Z,81.50
2023-02-02T20:39:49.919Z,83.17
2023-02-02T20:42:16.357Z,83.14
2023-02-02T20:44:43.250Z,83.39
2023-02-02T20:47:09.966Z,83.07
2023-02-02T20:49:37.046Z,82.87
2023-02-02T20:52:07.889Z,83.39
2023-02-02T20:54:34.490Z,83.99
2023-02-02T20:57:02.148Z,83.75
2023-02-02T20:59:28.632Z,84.02
2023-02-02T21:01:55.065Z,84.05
2023-02-02T21:04:22.018Z,84.37
2023-02-02T21:06:49.262Z,84.06
2023-02-02T21:09:16.149Z,84.63
2023-02-02T21:11:42.820Z,84.42
2023-02-02T21:14:09.342Z,84.16
2023-02-02T21:16:36.726Z,84.42
2023-02-02T21:19:03.295Z,84.43
2023-02-02T21:21:30.007Z,84.43
2023-02-02T21:23:56.665Z,84.59
2023-02-02T21:26:27.254Z,85.29
2023-02-02T21:28:53.994Z,86.66
2023-02-02T21:31:20.504Z,87.67
2023-02-02T21:33:47.841Z,88.29
2023-02-02T21:36:14.502Z,88.76
2023-02-02T21:38:40.955Z,89.08
2023-02-02T21:41:13.762Z,89.24
2023-02-02T21:43:40.290Z,89.59
2023-02-02T21:46:20.049Z,89.75
2023-02-02T21:48:47.951Z,91.23
2023-02-02T21:51:31.865Z,91.21
2023-02-02T21:53:58.289Z,91.16
2023-02-02T21:56:32.254Z,90.37
2023-02-02T21:59:00.297Z,90.30
2023-02-02T22:01:34.755Z,90.07
2023-02-02T22:04:01.437Z,89.51
2023-02-02T22:06:35.125Z,88.89
2023-02-02T22:09:14.348Z,89.13
2023-02-02T22:11:40.776Z,89.41
2023-02-02T22:14:13.116Z,89.56
2023-02-02T22:16:43.227Z,91.14
2023-02-02T22:19:29.906Z,92.25
2023-02-02T22:22:07.020Z,95.44
2023-02-02T22:24:33.562Z,95.05
2023-02-02T22:27:00.228Z,94.71
2023-02-02T22:29:29.175Z,94.46
2023-02-02T22:31:55.637Z,93.91
2023-02-02T22:34:22.184Z,93.36
2023-02-02T22:36:48.693Z,93.59
2023-02-02T22:39:15.125Z,93.15
2023-02-02T22:41:41.609Z,93.68
2023-02-02T22:44:08.123Z,93.13
2023-02-02T22:46:34.622Z,92.08
2023-02-02T22:49:01.136Z,91.63
2023-02-02T22:51:27.632Z,91.51
2023-02-02T22:53:54.084Z,90.88
2023-02-02T22:56:21.576Z,90.61
2023-02-02T22:58:48.014Z,90.16
2023-02-02T23:01:15.464Z,90.45
2023-02-02T23:03:41.979Z,90.31
2023-02-02T23:06:08.641Z,90.21
2023-02-02T23:08:35.171Z,90.39
2023-02-02T23:11:01.693Z,89.92
2023-02-02T23:13:28.144Z,88.64
2023-02-02T23:15:56.710Z,89.00
2023-02-02T23:18:23.283Z,88.43
2023-02-02T23:20:50.519Z,87.68
2023-02-02T23:23:17.135Z,86.54
2023-02-02T23:25:43.575Z,86.31
2023-02-02T23:28:10.636Z,86.51
2023-02-02T23:30:37.963Z,85.32
2023-02-02T23:33:04.411Z,85.41
2023-02-02T23:35:30.893Z,85.30
2023-02-02T23:37:57.353Z,84.31
2023-02-02T23:40:23.857Z,84.10
2023-02-02T23:42:50.520Z,84.07
2023-02-02T23:45:16.959Z,84.60
2023-02-02T23:47:43.664Z,85.10
2023-02-02T23:50:11.168Z,84.83
2023-02-02T23:52:37.960Z,84.49
2023-02-02T23:55:05.015Z,84.13
2023-02-02T23:57:33.923Z,84.82
